createdAt,value
2023-03-26T00:02:44.832Z,36.35
2023-03-26T00:05:53.977Z,36.05
2023-03-26T00:09:03.971Z,36.10
2023-03-26T00:12:12.540Z,36.38
2023-03-26T00:15:20.557Z,36.00
2023-03-26T00:18:32.768Z,36.18
2023-03-26T00:21:43.260Z,35.91
2023-03-26T00:24:53.002Z,36.34
2023-03-26T00:28:01.800Z,36.11
2023-03-26T00:31:14.330Z,36.03
2023-03-26T00:34:22.362Z,35.76
2023-03-26T00:37:34.979Z,36.25
2023-03-26T00:40:47.004Z,36.23
2023-03-26T00:43:59.373Z,35.93
2023-03-26T00:47:10.824Z,35.68
2023-03-26T00:50:19.600Z,36.12
2023-03-26T00:53:27.736Z,36.42
2023-03-26T00:56:36.387Z,35.83
2023-03-26T00:59:46.941Z,36.33
2023-03-26T01:02:58.788Z,35.94
2023-03-26T01:06:09.472Z,36.24
2023-03-26T01:09:19.747Z,35.87
2023-03-26T01:12:28.655Z,36.09
2023-03-26T01:15:40.742Z,35.90
2023-03-26T01:18:55.948Z,36.24
2023-03-26T01:22:07.468Z,36.14
2023-03-26T01:25:20.661Z,35.72
2023-03-26T01:28:31.592Z,35.86
2023-03-26T01:31:43.646Z,35.63
2023-03-26T01:35:09.735Z,35.94
2023-03-26T01:38:27.548Z,36.02
2023-03-26T01:41:43.656Z,36.13
2023-03-26T01:45:01.284Z,36.07
2023-03-26T01:48:11.790Z,36.18
2023-03-26T01:51:33.703Z,36.03
2023-03-26T01:54:49.306Z,35.65
2023-03-26T01:58:09.508Z,36.20
2023-03-26T02:01:27.377Z,35.84
2023-03-26T02:04:42.273Z,36.26
2023-03-26T02:07:52.985Z,35.94
2023-03-26T02:11:03.361Z,35.90
2023-03-26T02:14:11.025Z,35.83
2023-03-26T02:17:25.832Z,35.84
2023-03-26T02:20:37.200Z,35.78
2023-03-26T02:23:51.172Z,35.83
2023-03-26T02:26:57.554Z,35.76
2023-03-26T02:30:09.505Z,35.56
2023-03-26T02:33:20.312Z,35.63
2023-03-26T02:36:30.940Z,35.59
2023-03-26T02:39:39.858Z,36.14
2023-03-26T02:42:49.862Z,35.65
2023-03-26T02:46:05.825Z,36.07
2023-03-26T02:49:15.914Z,35.85
2023-03-26T02:52:25.784Z,35.39
2023-03-26T02:55:33.879Z,35.79
2023-03-26T02:58:43.679Z,36.06
2023-03-26T03:01:58.616Z,35.75
2023-03-26T03:05:05.029Z,35.65
2023-03-26T03:08:17.474Z,35.54
2023-03-26T03:11:26.576Z,35.72
2023-03-26T03:14:36.228Z,35.50
2023-03-26T03:17:46.191Z,35.50
2023-03-26T03:20:54.387Z,35.54
2023-03-26T03:24:08.068Z,35.77
2023-03-26T03:27:19.718Z,35.89
2023-03-26T03:30:27.049Z,35.97
2023-03-26T03:33:35.495Z,35.50
2023-03-26T03:36:44.355Z,35.97
2023-03-26T03:39:51.315Z,35.63
2023-03-26T03:43:00.305Z,35.85
2023-03-26T03:46:11.658Z,35.54
2023-03-26T03:49:24.784Z,36.01
2023-03-26T03:52:34.515Z,35.61
2023-03-26T03:55:45.476Z,35.78
2023-03-26T03:58:54.525Z,35.52
2023-03-26T04:02:01.448Z,35.84
2023-03-26T04:05:14.378Z,35.74
2023-03-26T04:08:20.960Z,35.42
2023-03-26T04:11:31.840Z,35.64
2023-03-26T04:14:40.866Z,35.82
2023-03-26T04:17:51.115Z,35.54
2023-03-26T04:21:05.796Z,35.86
2023-03-26T04:24:14.713Z,35.61
2023-03-26T04:27:29.404Z,35.78
2023-03-26T04:30:39.675Z,35.35
2023-03-26T04:33:55.176Z,35.40
2023-03-26T04:37:08.670Z,35.39
2023-03-26T04:40:20.762Z,35.59
2023-03-26T04:43:29.473Z,35.44
2023-03-26T04:46:41.863Z,35.85
2023-03-26T04:49:52.952Z,35.59
2023-03-26T04:53:01.680Z,35.66
2023-03-26T04:56:21.588Z,35.42
2023-03-26T04:59:34.730Z,35.62
2023-03-26T05:02:43.114Z,35.48
2023-03-26T05:05:52.848Z,35.49
2023-03-26T05:09:07.682Z,35.88
2023-03-26T05:12:15.992Z,35.35
2023-03-26T05:15:22.434Z,35.51
2023-03-26T05:18:34.594Z,35.51
2023-03-26T05:21:44.655Z,35.33
2023-03-26T05:24:54.797Z,35.27
2023-03-26T05:28:02.581Z,35.78
2023-03-26T05:31:12.464Z,35.86
2023-03-26T05:34:23.676Z,35.41
2023-03-26T05:37:34.281Z,35.44
2023-03-26T05:40:44.339Z,35.66
2023-03-26T05:43:50.213Z,35.45
2023-03-26T05:47:00.329Z,35.39
2023-03-26T05:50:12.968Z,35.72
2023-03-26T05:53:22.992Z,35.47
2023-03-26T05:56:33.535Z,35.48
2023-03-26T05:59:42.181Z,35.27
2023-03-26T06:02:48.819Z,35.23
2023-03-26T06:05:58.432Z,35.42
2023-03-26T06:09:11.304Z,34.84
2023-03-26T06:12:20.609Z,34.60
2023-03-26T06:15:26.725Z,35.09
2023-03-26T06:18:34.971Z,34.49
2023-03-26T06:21:44.977Z,34.88
2023-03-26T06:24:50.125Z,34.59
2023-03-26T06:28:02.223Z,34.67
2023-03-26T06:31:14.123Z,34.49
2023-03-26T06:34:25.188Z,34.24
2023-03-26T06:37:36.952Z,34.21
2023-03-26T06:40:50.297Z,33.83
2023-03-26T06:44:00.760Z,33.82
2023-03-26T06:47:09.167Z,33.95
2023-03-26T06:50:16.799Z,34.03
2023-03-26T06:53:28.159Z,33.94
2023-03-26T06:56:37.409Z,33.84
2023-03-26T06:59:48.233Z,33.49
2023-03-26T07:02:54.092Z,33.95
2023-03-26T07:06:05.766Z,33.77
2023-03-26T07:09:14.669Z,33.68
2023-03-26T07:12:21.625Z,33.50
2023-03-26T07:15:35.863Z,33.45
2023-03-26T07:18:46.258Z,33.80
2023-03-26T07:21:55.600Z,33.42
2023-03-26T07:25:05.302Z,33.46
2023-03-26T07:28:23.241Z,33.52
2023-03-26T07:31:39.184Z,33.19
2023-03-26T07:34:59.331Z,33.57
2023-03-26T07:38:25.139Z,33.36
2023-03-26T07:41:44.209Z,33.45
2023-03-26T07:45:01.507Z,33.25
2023-03-26T07:48:19.311Z,33.23
2023-03-26T07:51:30.201Z,33.55
2023-03-26T07:54:41.694Z,33.47
2023-03-26T07:58:03.477Z,33.46
2023-03-26T08:01:18.207Z,33.46
2023-03-26T08:04:48.706Z,33.22
2023-03-26T08:08:07.237Z,33.39
2023-03-26T08:11:28.401Z,33.50
2023-03-26T08:14:49.055Z,33.25
2023-03-26T08:18:03.290Z,33.53
2023-03-26T08:21:20.337Z,33.25
2023-03-26T08:24:33.854Z,33.51
2023-03-26T08:27:44.318Z,33.63
2023-03-26T08:30:55.605Z,33.28
2023-03-26T08:34:07.275Z,33.30
2023-03-26T08:37:21.769Z,33.14
2023-03-26T08:41:06.447Z,33.29
2023-03-26T08:45:03.821Z,33.73
2023-03-26T08:48:32.683Z,33.35
2023-03-26T08:56:02.087Z,33.59
2023-03-26T08:59:45.690Z,33.49
2023-03-26T09:03:28.598Z,33.29
2023-03-26T09:07:03.923Z,33.23
2023-03-26T09:10:54.874Z,33.53
2023-03-26T09:14:25.527Z,33.50
2023-03-26T09:18:06.137Z,33.40
2023-03-26T09:21:48.127Z,33.25
2023-03-26T09:25:23.420Z,32.41
2023-03-26T09:29:00.119Z,32.38
2023-03-26T09:32:45.513Z,31.99
2023-03-26T09:36:14.149Z,32.19
2023-03-26T09:39:29.055Z,32.44
2023-03-26T09:42:47.066Z,33.10
2023-03-26T09:46:13.477Z,33.25
2023-03-26T09:49:49.365Z,33.45
2023-03-26T09:53:27.544Z,33.45
2023-03-26T09:56:48.269Z,32.80
2023-03-26T10:00:16.159Z,32.34
2023-03-26T10:03:40.190Z,31.86
2023-03-26T10:07:04.069Z,32.75
2023-03-26T10:10:18.931Z,33.41
2023-03-26T10:13:33.137Z,33.79
2023-03-26T10:16:54.480Z,34.13
2023-03-26T10:20:18.663Z,33.98
2023-03-26T10:23:44.066Z,34.38
2023-03-26T10:27:10.841Z,34.02
2023-03-26T10:30:39.209Z,33.73
2023-03-26T10:33:57.527Z,33.82
2023-03-26T10:37:14.791Z,33.09
2023-03-26T10:40:29.106Z,33.28
2023-03-26T10:44:13.792Z,32.43
2023-03-26T10:48:07.136Z,32.73
2023-03-26T10:51:28.532Z,32.76
2023-03-26T10:54:48.655Z,32.17
2023-03-26T10:57:59.807Z,32.24
2023-03-26T11:01:14.944Z,32.11
2023-03-26T11:04:32.859Z,32.30
2023-03-26T11:07:48.711Z,32.28
2023-03-26T11:11:00.658Z,32.00
2023-03-26T11:14:24.619Z,30.39
2023-03-26T11:17:48.425Z,27.98
2023-03-26T11:21:18.923Z,29.13
2023-03-26T11:24:51.974Z,28.95
2023-03-26T11:28:11.253Z,30.21
2023-03-26T11:31:28.895Z,30.65
2023-03-26T11:34:38.489Z,31.48
2023-03-26T11:37:48.514Z,32.24
2023-03-26T11:40:58.800Z,32.59
2023-03-26T11:44:05.897Z,33.22
2023-03-26T11:47:16.727Z,33.42
2023-03-26T11:50:27.908Z,33.44
2023-03-26T11:53:35.444Z,33.90
2023-03-26T11:57:05.688Z,34.05
2023-03-26T12:00:18.910Z,34.36
2023-03-26T12:03:30.917Z,34.00
2023-03-26T12:06:38.443Z,34.40
2023-03-26T12:09:52.613Z,34.56
2023-03-26T12:13:03.273Z,34.75
2023-03-26T12:16:15.156Z,34.55
2023-03-26T12:19:25.407Z,34.15
2023-03-26T12:22:37.015Z,34.69
2023-03-26T12:25:44.501Z,34.44
2023-03-26T12:28:52.556Z,34.52
2023-03-26T12:31:59.783Z,34.51
2023-03-26T12:35:10.613Z,34.13
2023-03-26T12:38:29.282Z,34.18
2023-03-26T12:44:45.071Z,34.55
2023-03-26T12:45:08.588Z,34.57
2023-03-26T12:48:18.606Z,34.31
2023-03-26T12:51:38.558Z,34.28
2023-03-26T12:54:57.026Z,33.88
2023-03-26T12:58:16.964Z,34.04
2023-03-26T13:01:37.257Z,33.60
2023-03-26T13:05:05.497Z,33.92
2023-03-26T13:08:49.096Z,32.95
2023-03-26T13:12:15.532Z,32.89
2023-03-26T13:15:28.835Z,33.00
2023-03-26T13:18:44.173Z,32.59
2023-03-26T13:22:09.478Z,32.32
2023-03-26T13:25:32.005Z,30.90
2023-03-26T13:28:48.041Z,30.66
2023-03-26T13:32:03.840Z,30.61
2023-03-26T13:35:22.453Z,31.03
2023-03-26T13:38:41.797Z,30.97
2023-03-26T13:42:12.441Z,30.53
2023-03-26T13:45:32.341Z,30.17
2023-03-26T13:48:45.485Z,30.12
2023-03-26T13:51:59.932Z,29.88
2023-03-26T13:55:21.300Z,29.89
2023-03-26T13:58:35.073Z,30.00
2023-03-26T14:01:50.566Z,29.71
2023-03-26T14:05:06.861Z,29.52
2023-03-26T14:08:19.561Z,29.35
2023-03-26T14:11:37.515Z,29.51
2023-03-26T14:14:51.832Z,29.03
2023-03-26T14:18:02.902Z,29.27
2023-03-26T14:21:35.705Z,28.74
2023-03-26T14:25:12.159Z,28.80
2023-03-26T14:28:56.056Z,29.08
2023-03-26T14:32:26.545Z,28.42
2023-03-26T14:35:41.926Z,28.29
2023-03-26T14:39:10.373Z,28.76
2023-03-26T14:42:23.150Z,27.98
2023-03-26T14:46:01.956Z,27.61
2023-03-26T14:49:33.934Z,27.39
2023-03-26T14:52:49.405Z,27.42
2023-03-26T14:56:33.687Z,27.32
2023-03-26T15:00:16.896Z,26.99
2023-03-26T15:03:53.746Z,27.41
2023-03-26T15:07:31.752Z,27.38
2023-03-26T15:11:04.929Z,27.27
2023-03-26T15:14:47.505Z,27.09
2023-03-26T15:18:41.492Z,27.15
2023-03-26T15:22:33.318Z,26.62
2023-03-26T15:26:22.699Z,26.47
2023-03-26T15:30:04.080Z,26.73
2023-03-26T15:33:34.361Z,27.13
2023-03-26T15:37:22.978Z,27.23
2023-03-26T15:40:36.425Z,27.27
2023-03-26T15:44:22.803Z,27.88
2023-03-26T15:47:53.000Z,27.74
2023-03-26T15:51:04.934Z,27.58
2023-03-26T15:54:19.369Z,28.19
2023-03-26T15:57:32.239Z,27.63
2023-03-26T16:00:39.102Z,28.03
2023-03-26T16:03:54.285Z,27.99
2023-03-26T16:07:05.277Z,27.40
2023-03-26T16:10:28.816Z,27.48
2023-03-26T16:13:40.566Z,27.20
2023-03-26T16:16:56.242Z,27.26
2023-03-26T16:20:31.275Z,27.11
2023-03-26T16:23:56.360Z,27.49
2023-03-26T16:27:24.521Z,26.63
2023-03-26T16:30:35.834Z,26.57
2023-03-26T16:33:51.483Z,25.93
2023-03-26T16:37:03.656Z,26.16
2023-03-26T16:40:31.708Z,24.76
2023-03-26T16:43:54.120Z,24.84
2023-03-26T16:47:07.153Z,25.23
2023-03-26T16:50:27.487Z,25.79
2023-03-26T16:53:47.084Z,26.20
2023-03-26T16:57:00.918Z,26.27
2023-03-26T17:00:50.546Z,26.28
2023-03-26T17:04:03.851Z,26.85
2023-03-26T17:07:18.789Z,27.42
2023-03-26T17:10:37.164Z,26.84
2023-03-26T17:13:54.183Z,27.20
2023-03-26T17:17:29.191Z,27.06
2023-03-26T17:20:41.213Z,26.80
2023-03-26T17:24:03.804Z,26.78
2023-03-26T17:27:27.835Z,27.01
2023-03-26T17:30:54.166Z,26.52
2023-03-26T17:34:49.043Z,27.09
2023-03-26T17:37:56.319Z,27.59
2023-03-26T17:41:02.437Z,27.50
2023-03-26T17:44:37.195Z,28.21
2023-03-26T17:47:46.186Z,28.06
2023-03-26T17:50:57.194Z,27.68
2023-03-26T17:54:05.530Z,27.79
2023-03-26T17:57:17.490Z,27.29
2023-03-26T18:00:27.095Z,27.66
2023-03-26T18:03:38.919Z,27.10
2023-03-26T18:06:59.308Z,27.48
2023-03-26T18:10:23.597Z,26.65
2023-03-26T18:14:10.606Z,26.14
2023-03-26T18:17:17.039Z,26.52
2023-03-26T18:20:25.061Z,26.29
2023-03-26T18:23:36.675Z,25.99
2023-03-26T18:26:43.791Z,25.86
2023-03-26T18:30:02.120Z,25.74
2023-03-26T18:33:15.659Z,26.27
2023-03-26T18:36:20.490Z,26.04
2023-03-26T18:39:26.023Z,25.59
2023-03-26T18:42:34.211Z,25.57
2023-03-26T18:45:42.007Z,25.84
2023-03-26T18:48:49.909Z,25.54
2023-03-26T18:51:57.522Z,25.19
2023-03-26T18:55:05.759Z,25.10
2023-03-26T18:58:25.757Z,25.23
2023-03-26T19:01:33.423Z,25.52
2023-03-26T19:04:39.778Z,25.83
2023-03-26T19:07:47.838Z,25.69
2023-03-26T19:10:57.887Z,25.50
2023-03-26T19:14:09.113Z,25.63
2023-03-26T19:17:14.245Z,25.36
2023-03-26T19:20:26.187Z,25.14
2023-03-26T19:23:35.264Z,25.31
2023-03-26T19:26:44.878Z,25.24
2023-03-26T19:29:50.316Z,25.62
2023-03-26T19:33:12.918Z,25.31
2023-03-26T19:36:24.333Z,25.49
2023-03-26T19:39:41.386Z,24.87
2023-03-26T19:42:49.431Z,25.17
2023-03-26T19:46:00.416Z,24.90
2023-03-26T19:49:09.500Z,25.03
2023-03-26T19:52:22.583Z,25.28
2023-03-26T19:55:28.252Z,25.66
2023-03-26T19:58:36.376Z,25.25
2023-03-26T20:01:40.489Z,25.98
2023-03-26T20:04:49.732Z,25.42
2023-03-26T20:07:56.788Z,25.42
2023-03-26T20:11:03.585Z,25.33
2023-03-26T20:14:14.801Z,26.18
2023-03-26T20:17:22.312Z,26.78
2023-03-26T20:23:56.132Z,26.91
2023-03-26T20:26:59.695Z,26.51
2023-03-26T20:30:05.892Z,26.48
2023-03-26T20:33:16.757Z,27.19
2023-03-26T20:36:33.916Z,27.46
2023-03-26T20:39:39.966Z,27.62
2023-03-26T20:42:44.773Z,27.97
2023-03-26T20:45:48.712Z,27.75
2023-03-26T20:48:53.648Z,27.60
2023-03-26T20:51:59.712Z,28.06
2023-03-26T20:55:15.793Z,27.74
2023-03-26T20:58:31.384Z,28.01
2023-03-26T21:01:35.602Z,28.09
2023-03-26T21:04:42.842Z,27.89
2023-03-26T21:07:50.255Z,28.00
2023-03-26T21:11:03.897Z,28.08
2023-03-26T21:14:13.739Z,27.61
2023-03-26T21:17:19.261Z,28.24
2023-03-26T21:20:29.281Z,27.85
2023-03-26T21:23:41.628Z,27.84
2023-03-26T21:27:00.286Z,28.42
2023-03-26T21:30:10.708Z,28.08
2023-03-26T21:33:20.385Z,28.13
2023-03-26T21:36:28.822Z,27.99
2023-03-26T21:39:39.202Z,28.16
2023-03-26T21:42:50.513Z,27.92
2023-03-26T21:46:02.554Z,27.93
2023-03-26T21:49:12.190Z,28.09
2023-03-26T21:52:24.082Z,27.98
2023-03-26T21:55:35.435Z,28.27
2023-03-26T21:58:57.854Z,28.07
2023-03-26T22:02:11.591Z,27.93
2023-03-26T22:05:18.651Z,28.28
2023-03-26T22:08:33.123Z,27.88
2023-03-26T22:11:42.363Z,27.84
2023-03-26T22:14:47.615Z,27.99
2023-03-26T22:17:57.554Z,27.96
2023-03-26T22:21:07.944Z,28.29
2023-03-26T22:24:16.552Z,28.25
2023-03-26T22:27:24.533Z,28.10
2023-03-26T22:30:31.232Z,28.01
2023-03-26T22:33:42.927Z,27.94
2023-03-26T22:36:52.608Z,27.97
2023-03-26T22:40:01.729Z,28.04
2023-03-26T22:43:13.121Z,28.53
2023-03-26T22:46:21.312Z,28.61
2023-03-26T22:49:32.030Z,28.27
2023-03-26T22:52:42.056Z,28.43
2023-03-26T22:55:55.825Z,28.72
2023-03-26T22:59:05.505Z,28.60
2023-03-26T23:02:14.650Z,28.68
2023-03-26T23:05:20.017Z,28.27
2023-03-26T23:08:30.736Z,28.58
2023-03-26T23:11:41.944Z,28.65
2023-03-26T23:14:55.143Z,28.79
2023-03-26T23:18:07.140Z,28.92
2023-03-26T23:21:20.327Z,28.86
2023-03-26T23:24:30.980Z,28.83
2023-03-26T23:27:41.590Z,28.68
2023-03-26T23:30:50.218Z,28.93
2023-03-26T23:33:58.731Z,28.99
2023-03-26T23:37:08.890Z,28.69
2023-03-26T23:40:18.511Z,29.00
2023-03-26T23:43:27.584Z,29.14
2023-03-26T23:46:39.760Z,28.80
2023-03-26T23:49:52.592Z,28.96
2023-03-26T23:53:06.215Z,28.79
2023-03-26T23:56:14.079Z,29.32
2023-03-26T23:59:23.498Z,29.34
